createdAt,value
2022-08-14T00:02:02.325Z,28.25
2022-08-14T00:04:34.521Z,28.50
2022-08-14T00:07:07.601Z,27.25
2022-08-14T00:09:55.189Z,26.25
2022-08-14T00:12:23.897Z,25.50
2022-08-14T00:14:54.712Z,27.25
2022-08-14T00:17:22.784Z,23.75
2022-08-14T00:19:51.669Z,23.25
2022-08-14T00:22:22.076Z,26.25
2022-08-14T00:25:08.839Z,25.75
2022-08-14T00:27:37.979Z,24.25
2022-08-14T00:30:07.309Z,27.00
2022-08-14T00:32:51.793Z,29.75
2022-08-14T00:35:20.920Z,28.50
2022-08-14T00:38:09.639Z,28.75
2022-08-14T00:40:37.387Z,25.25
2022-08-14T00:43:05.113Z,27.75
2022-08-14T00:45:32.700Z,27.25
2022-08-14T00:48:00.356Z,28.00
2022-08-14T00:50:30.384Z,23.25
2022-08-14T00:52:59.961Z,27.00
2022-08-14T00:55:29.962Z,26.00
2022-08-14T00:58:12.023Z,25.75
2022-08-14T01:00:47.361Z,25.75
2022-08-14T01:03:18.945Z,24.50
2022-08-14T01:05:52.000Z,26.25
2022-08-14T01:08:20.680Z,24.00
2022-08-14T01:11:09.751Z,25.25
2022-08-14T01:13:42.374Z,25.50
2022-08-14T01:16:12.120Z,24.25
2022-08-14T01:19:02.340Z,22.75
2022-08-14T01:21:34.746Z,22.00
2022-08-14T01:24:07.379Z,21.00
2022-08-14T01:26:38.745Z,24.75
2022-08-14T01:29:06.820Z,21.00
2022-08-14T01:31:39.150Z,22.25
2022-08-14T01:35:20.662Z,22.50
2022-08-14T01:36:55.722Z,22.25
2022-08-14T01:39:23.203Z,22.00
2022-08-14T01:41:56.129Z,22.50
2022-08-14T01:44:33.235Z,24.75
2022-08-14T01:47:05.816Z,22.75
2022-08-14T01:49:35.689Z,20.00
2022-08-14T01:52:33.991Z,22.00
2022-08-14T01:55:02.885Z,19.00
2022-08-14T01:58:01.024Z,20.25
2022-08-14T02:00:21.766Z,21.50
2022-08-14T02:02:56.439Z,22.75
2022-08-14T02:05:38.145Z,22.00
2022-08-14T02:08:09.674Z,20.25
2022-08-14T02:10:46.099Z,22.25
2022-08-14T02:13:16.257Z,18.75
2022-08-14T02:15:44.226Z,20.50
2022-08-14T02:18:15.338Z,18.25
2022-08-14T02:20:42.916Z,20.75
2022-08-14T02:23:12.730Z,20.00
2022-08-14T02:25:44.137Z,21.00
2022-08-14T02:28:57.038Z,19.25
2022-08-14T02:31:10.686Z,22.75
2022-08-14T02:33:42.678Z,20.50
2022-08-14T02:37:05.187Z,18.25
2022-08-14T02:38:59.518Z,19.75
2022-08-14T02:41:28.899Z,19.50
2022-08-14T02:44:00.894Z,21.00
2022-08-14T02:46:32.150Z,19.25
2022-08-14T02:49:04.523Z,20.25
2022-08-14T02:51:33.401Z,22.25
2022-08-14T02:54:03.690Z,17.00
2022-08-14T02:57:15.546Z,18.75
2022-08-14T02:59:28.812Z,19.00
2022-08-14T03:01:57.341Z,17.50
2022-08-14T03:04:26.397Z,19.25
2022-08-14T03:07:06.527Z,19.00
2022-08-14T03:10:24.489Z,17.50
2022-08-14T03:12:31.078Z,17.75
2022-08-14T03:15:00.462Z,18.00
2022-08-14T03:17:31.726Z,20.75
2022-08-14T03:20:11.407Z,18.75
2022-08-14T03:22:41.856Z,20.25
2022-08-14T03:25:12.094Z,17.75
2022-08-14T03:27:47.750Z,18.75
2022-08-14T03:30:15.597Z,18.75
2022-08-14T03:32:51.505Z,18.50
2022-08-14T03:35:19.738Z,19.00
2022-08-14T03:39:10.666Z,18.00
2022-08-14T03:40:38.117Z,19.00
2022-08-14T03:43:06.274Z,18.50
2022-08-14T03:45:35.734Z,20.00
2022-08-14T03:48:05.250Z,17.75
2022-08-14T03:50:39.465Z,17.25
2022-08-14T03:53:06.892Z,20.00
2022-08-14T03:55:36.544Z,18.25
2022-08-14T03:58:05.199Z,19.50
2022-08-14T04:00:43.996Z,19.25
2022-08-14T04:03:23.554Z,20.00
2022-08-14T04:05:51.941Z,20.50
2022-08-14T04:08:30.177Z,18.50
2022-08-14T04:11:01.252Z,19.00
2022-08-14T04:13:31.635Z,19.00
2022-08-14T04:16:05.231Z,19.00
2022-08-14T04:18:34.371Z,8.25
2022-08-14T04:21:02.348Z,15.50
2022-08-14T04:23:32.826Z,19.00
2022-08-14T04:26:03.012Z,16.50
2022-08-14T04:29:06.809Z,18.25
2022-08-14T04:31:18.232Z,19.75
2022-08-14T04:33:53.237Z,19.25
2022-08-14T04:36:21.324Z,19.75
2022-08-14T04:39:08.988Z,18.75
2022-08-14T04:41:58.409Z,16.50
2022-08-14T04:44:36.847Z,17.50
2022-08-14T04:47:23.734Z,19.50
2022-08-14T04:49:57.224Z,18.75
2022-08-14T04:52:25.469Z,18.75
2022-08-14T04:54:54.758Z,18.00
2022-08-14T04:57:24.842Z,15.00
2022-08-14T04:59:52.969Z,18.25
2022-08-14T05:02:24.373Z,15.00
2022-08-14T05:04:57.090Z,18.00
2022-08-14T05:07:46.883Z,19.00
2022-08-14T05:10:16.461Z,17.75
2022-08-14T05:13:12.717Z,16.50
2022-08-14T05:15:40.660Z,16.50
2022-08-14T05:18:17.222Z,15.75
2022-08-14T05:21:56.830Z,16.75
2022-08-14T05:23:35.568Z,18.25
2022-08-14T05:26:05.993Z,17.50
2022-08-14T05:28:36.085Z,16.67
2022-08-14T05:31:06.304Z,16.75
2022-08-14T05:33:34.675Z,17.25
2022-08-14T05:36:05.008Z,16.50
2022-08-14T05:38:35.234Z,17.25
2022-08-14T05:41:06.355Z,18.25
2022-08-14T05:43:41.231Z,18.50
2022-08-14T05:46:10.934Z,17.00
2022-08-14T05:48:43.710Z,14.75
2022-08-14T05:51:12.164Z,16.00
2022-08-14T05:53:42.489Z,17.00
2022-08-14T05:56:10.091Z,17.50
2022-08-14T05:58:40.974Z,17.25
2022-08-14T06:01:10.277Z,16.00
2022-08-14T06:03:40.185Z,16.75
2022-08-14T06:06:08.520Z,17.25
2022-08-14T06:08:41.464Z,16.25
2022-08-14T06:11:09.463Z,17.75
2022-08-14T06:13:44.430Z,16.67
2022-08-14T06:16:12.947Z,17.67
2022-08-14T06:18:40.383Z,18.00
2022-08-14T06:21:12.955Z,20.00
2022-08-14T06:23:41.197Z,18.33
2022-08-14T06:26:09.496Z,15.33
2022-08-14T06:28:39.075Z,17.25
2022-08-14T06:31:08.550Z,17.25
2022-08-14T06:35:02.806Z,22.25
2022-08-14T06:36:23.733Z,19.75
2022-08-14T06:38:52.571Z,20.75
2022-08-14T06:41:58.623Z,20.00
2022-08-14T06:44:10.965Z,19.50
2022-08-14T06:46:39.632Z,20.75
2022-08-14T06:49:07.262Z,21.50
2022-08-14T06:51:38.641Z,21.25
2022-08-14T06:54:13.579Z,15.25
2022-08-14T06:56:44.156Z,22.25
2022-08-14T06:59:19.108Z,20.25
2022-08-14T07:02:05.123Z,20.50
2022-08-14T07:04:49.946Z,22.00
2022-08-14T07:07:18.337Z,23.25
2022-08-14T07:09:51.079Z,24.50
2022-08-14T07:12:52.192Z,20.25
2022-08-14T07:15:08.790Z,21.50
2022-08-14T07:17:44.416Z,23.00
2022-08-14T07:20:12.535Z,22.25
2022-08-14T07:22:55.853Z,22.00
2022-08-14T07:25:32.207Z,22.75
2022-08-14T07:28:05.985Z,23.50
2022-08-14T07:30:35.421Z,22.50
2022-08-14T07:33:03.134Z,23.00
2022-08-14T07:35:42.832Z,21.50
2022-08-14T07:38:18.407Z,21.25
2022-08-14T07:40:47.429Z,23.50
2022-08-14T07:43:21.346Z,21.75
2022-08-14T07:45:50.717Z,20.50
2022-08-14T07:48:19.460Z,20.25
2022-08-14T07:50:52.789Z,17.50
2022-08-14T07:53:22.821Z,25.00
2022-08-14T07:56:00.540Z,22.75
2022-08-14T07:58:38.881Z,22.50
2022-08-14T08:01:20.222Z,23.25
2022-08-14T08:03:49.709Z,24.25
2022-08-14T08:06:25.695Z,18.75
2022-08-14T08:09:01.222Z,16.50
2022-08-14T08:11:34.611Z,22.25
2022-08-14T08:14:10.319Z,22.50
2022-08-14T08:16:46.411Z,22.75
2022-08-14T08:19:18.721Z,23.25
2022-08-14T08:21:46.962Z,23.50
2022-08-14T08:24:15.006Z,24.25
2022-08-14T08:26:47.499Z,24.00
2022-08-14T08:29:20.250Z,23.75
2022-08-14T08:31:53.762Z,22.00
2022-08-14T08:34:23.492Z,21.75
2022-08-14T08:36:52.684Z,24.00
2022-08-14T08:39:22.425Z,22.75
2022-08-14T08:41:53.431Z,23.50
2022-08-14T08:44:32.342Z,23.25
2022-08-14T08:47:05.956Z,22.50
2022-08-14T08:49:43.124Z,21.25
2022-08-14T08:52:24.862Z,22.00
2022-08-14T08:54:56.674Z,22.50
2022-08-14T08:57:24.501Z,24.25
2022-08-14T08:59:55.263Z,22.00
2022-08-14T09:02:27.945Z,24.00
2022-08-14T09:05:02.292Z,24.25
2022-08-14T09:07:31.101Z,25.25
2022-08-14T09:10:00.559Z,23.75
2022-08-14T09:12:32.480Z,19.00
2022-08-14T09:15:02.074Z,23.25
2022-08-14T09:17:30.908Z,21.00
2022-08-14T09:20:02.143Z,20.50
2022-08-14T09:22:35.825Z,21.00
2022-08-14T09:25:07.225Z,20.50
2022-08-14T09:27:35.084Z,20.25
2022-08-14T09:30:12.682Z,20.50
2022-08-14T09:32:58.966Z,20.50
2022-08-14T09:35:38.165Z,21.25
2022-08-14T09:38:19.454Z,21.00
2022-08-14T09:40:58.809Z,20.25
2022-08-14T09:43:30.734Z,18.50
2022-08-14T09:46:02.571Z,16.50
2022-08-14T09:48:31.934Z,19.50
2022-08-14T09:54:19.403Z,19.50
2022-08-14T09:56:30.147Z,18.75
2022-08-14T09:58:59.331Z,16.25
2022-08-14T10:01:36.542Z,16.50
2022-08-14T10:04:12.391Z,19.50
2022-08-14T10:06:54.914Z,17.50
2022-08-14T10:09:22.361Z,15.50
2022-08-14T10:11:58.857Z,17.00
2022-08-14T10:14:35.069Z,19.25
2022-08-14T10:17:05.196Z,15.00
2022-08-14T10:19:36.453Z,17.00
2022-08-14T10:23:14.422Z,17.00
2022-08-14T10:24:56.627Z,16.25
2022-08-14T10:27:25.221Z,17.00
2022-08-14T10:29:55.584Z,16.75
2022-08-14T10:32:36.105Z,16.50
2022-08-14T10:35:13.321Z,18.25
2022-08-14T10:37:44.258Z,14.25
2022-08-14T10:40:38.491Z,16.00
2022-08-14T10:43:00.856Z,15.75
2022-08-14T10:45:33.929Z,18.00
2022-08-14T10:48:09.733Z,15.50
2022-08-14T10:50:53.769Z,15.25
2022-08-14T10:53:30.206Z,13.50
2022-08-14T10:56:03.718Z,16.00
2022-08-14T10:58:34.393Z,16.00
2022-08-14T11:01:08.108Z,17.00
2022-08-14T11:03:55.996Z,16.25
2022-08-14T11:06:27.193Z,15.50
2022-08-14T11:08:55.208Z,18.00
2022-08-14T11:11:25.155Z,15.75
2022-08-14T11:13:57.323Z,12.75
2022-08-14T11:16:25.049Z,14.50
2022-08-14T11:18:59.604Z,15.50
2022-08-14T11:21:30.328Z,16.00
2022-08-14T11:24:01.754Z,17.00
2022-08-14T11:26:49.194Z,15.25
2022-08-14T11:29:20.880Z,14.75
2022-08-14T11:31:52.147Z,15.00
2022-08-14T11:34:30.207Z,15.25
2022-08-14T11:37:22.960Z,15.25
2022-08-14T11:39:54.566Z,14.75
2022-08-14T11:42:56.607Z,17.00
2022-08-14T11:45:17.141Z,15.75
2022-08-14T11:48:13.215Z,15.75
2022-08-14T11:50:37.835Z,17.25
2022-08-14T11:53:08.032Z,17.00
2022-08-14T11:55:38.535Z,14.25
2022-08-14T11:58:08.724Z,17.25
2022-08-14T12:00:46.987Z,16.25
2022-08-14T12:03:17.813Z,17.33
2022-08-14T12:05:50.279Z,17.33
2022-08-14T12:08:24.521Z,16.00
2022-08-14T12:10:58.577Z,18.75
2022-08-14T12:13:27.420Z,17.00
2022-08-14T12:15:59.045Z,16.75
2022-08-14T12:18:32.339Z,15.75
2022-08-14T12:21:00.321Z,16.00
2022-08-14T12:23:29.123Z,17.33
2022-08-14T12:26:32.140Z,16.25
2022-08-14T12:28:59.280Z,16.25
2022-08-14T12:31:27.786Z,16.25
2022-08-14T12:34:10.201Z,14.25
2022-08-14T12:36:38.017Z,14.50
2022-08-14T12:39:19.392Z,15.50
2022-08-14T12:41:53.738Z,17.00
2022-08-14T12:44:30.104Z,16.00
2022-08-14T12:47:03.597Z,15.67
2022-08-14T12:49:34.116Z,13.33
2022-08-14T12:52:02.217Z,13.00
2022-08-14T12:54:32.250Z,14.33
2022-08-14T12:57:07.385Z,13.00
2022-08-14T12:59:37.020Z,12.00
2022-08-14T13:02:13.634Z,13.00
2022-08-14T13:04:43.210Z,12.00
2022-08-14T13:07:10.762Z,12.50
2022-08-14T13:09:39.528Z,14.00
2022-08-14T13:12:31.353Z,12.00
2022-08-14T13:14:58.423Z,11.33
2022-08-14T13:17:26.888Z,12.00
2022-08-14T13:19:56.660Z,8.75
2022-08-14T13:22:32.083Z,10.67
2022-08-14T13:25:05.247Z,11.50
2022-08-14T13:27:33.550Z,9.33
2022-08-14T13:30:10.355Z,8.33
2022-08-14T13:32:40.456Z,9.00
2022-08-14T13:35:12.147Z,8.00
2022-08-14T13:37:44.238Z,10.00
2022-08-14T13:40:13.777Z,9.33
2022-08-14T13:42:42.926Z,7.33
2022-08-14T13:45:11.916Z,9.33
2022-08-14T13:47:44.926Z,11.00
2022-08-14T13:50:18.158Z,11.33
2022-08-14T13:52:59.264Z,9.33
2022-08-14T13:55:30.527Z,11.33
2022-08-14T13:58:04.149Z,9.75
2022-08-14T14:00:35.721Z,10.50
2022-08-14T14:03:20.342Z,12.00
2022-08-14T14:05:53.230Z,10.25
2022-08-14T14:08:46.283Z,12.33
2022-08-14T14:11:11.030Z,12.00
2022-08-14T14:13:44.997Z,10.75
2022-08-14T14:16:15.339Z,12.00
2022-08-14T14:18:59.026Z,11.25
2022-08-14T14:21:30.498Z,9.75
2022-08-14T14:24:00.279Z,11.00
2022-08-14T14:26:30.768Z,11.00
2022-08-14T14:29:04.397Z,10.50
2022-08-14T14:31:32.340Z,8.00
2022-08-14T14:34:01.018Z,11.50
2022-08-14T14:36:35.398Z,10.75
2022-08-14T14:39:05.278Z,11.50
2022-08-14T14:41:37.788Z,10.75
2022-08-14T14:44:06.922Z,10.33
2022-08-14T14:46:37.404Z,11.75
2022-08-14T14:49:06.662Z,11.00
2022-08-14T14:51:35.455Z,11.00
2022-08-14T14:54:03.007Z,11.00
2022-08-14T14:56:49.893Z,10.33
2022-08-14T14:59:20.414Z,10.33
2022-08-14T15:01:50.147Z,11.00
2022-08-14T15:04:20.539Z,10.33
2022-08-14T15:06:48.774Z,11.67
2022-08-14T15:09:17.665Z,10.00
2022-08-14T15:11:45.893Z,10.00
2022-08-14T15:14:54.642Z,11.00
2022-08-14T15:17:03.731Z,9.75
2022-08-14T15:19:31.998Z,11.00
2022-08-14T15:22:00.249Z,10.33
2022-08-14T15:24:27.698Z,10.33
2022-08-14T15:26:56.977Z,7.00
2022-08-14T15:29:26.080Z,11.67
2022-08-14T15:31:53.998Z,10.25
2022-08-14T15:34:43.762Z,7.25
2022-08-14T15:37:12.747Z,10.67
2022-08-14T15:39:41.355Z,10.67
2022-08-14T15:42:16.069Z,9.75
2022-08-14T15:44:57.556Z,10.00
2022-08-14T15:47:29.549Z,8.67
2022-08-14T15:50:00.382Z,9.00
2022-08-14T15:52:32.730Z,8.33
2022-08-14T15:55:03.527Z,13.00
2022-08-14T15:57:32.114Z,8.67
2022-08-14T16:00:21.317Z,9.00
2022-08-14T16:03:04.862Z,6.67
2022-08-14T16:05:38.630Z,9.00
2022-08-14T16:08:07.302Z,9.00
2022-08-14T16:10:54.724Z,10.67
2022-08-14T16:13:41.349Z,10.00
2022-08-14T16:16:51.025Z,10.33
2022-08-14T16:19:07.481Z,9.50
2022-08-14T16:21:58.378Z,10.00
2022-08-14T16:24:32.968Z,10.00
2022-08-14T16:27:01.475Z,10.00
2022-08-14T16:29:29.925Z,11.33
2022-08-14T16:31:58.121Z,11.00
2022-08-14T16:34:47.116Z,8.50
2022-08-14T16:37:16.467Z,10.33
2022-08-14T16:39:44.092Z,11.67
2022-08-14T16:43:02.435Z,12.00
2022-08-14T16:44:59.151Z,12.00
2022-08-14T16:47:34.914Z,12.67
2022-08-14T16:50:08.329Z,9.33
2022-08-14T16:52:44.789Z,12.75
2022-08-14T16:55:22.363Z,13.00
2022-08-14T16:57:58.739Z,11.25
2022-08-14T17:00:28.880Z,11.67
2022-08-14T17:03:01.193Z,11.33
2022-08-14T17:05:29.336Z,14.00
2022-08-14T17:08:41.662Z,12.75
2022-08-14T17:11:11.187Z,13.00
2022-08-14T17:13:57.882Z,13.00
2022-08-14T17:16:29.936Z,13.50
2022-08-14T17:19:01.513Z,11.75
2022-08-14T17:21:31.899Z,15.00
2022-08-14T17:24:56.449Z,14.00
2022-08-14T17:26:55.127Z,16.25
2022-08-14T17:29:24.113Z,13.25
2022-08-14T17:32:02.183Z,12.25
2022-08-14T17:34:45.261Z,12.25
2022-08-14T17:37:24.451Z,14.25
2022-08-14T17:40:02.153Z,15.25
2022-08-14T17:42:53.586Z,13.00
2022-08-14T17:45:26.847Z,16.25
2022-08-14T17:48:02.108Z,16.00
2022-08-14T17:50:58.685Z,14.50
2022-08-14T17:53:30.353Z,14.00
2022-08-14T17:56:01.110Z,16.00
2022-08-14T17:58:41.679Z,14.50
2022-08-14T18:01:09.430Z,15.25
2022-08-14T18:03:46.774Z,14.25
2022-08-14T18:06:39.955Z,15.67
2022-08-14T18:09:11.796Z,16.33
2022-08-14T18:11:55.200Z,15.33
2022-08-14T18:14:32.265Z,14.00
2022-08-14T18:17:01.433Z,15.67
2022-08-14T18:19:30.595Z,15.67
2022-08-14T18:21:59.151Z,9.00
2022-08-14T18:24:29.579Z,14.67
2022-08-14T18:27:02.094Z,13.67
2022-08-14T18:29:31.618Z,15.33
2022-08-14T18:31:59.971Z,17.33
2022-08-14T18:34:35.395Z,15.75
2022-08-14T18:37:17.562Z,13.75
2022-08-14T18:40:02.963Z,13.00
2022-08-14T18:42:44.574Z,13.25
2022-08-14T18:45:15.586Z,13.33
2022-08-14T18:48:14.498Z,11.33
2022-08-14T18:50:33.331Z,12.33
2022-08-14T18:53:05.848Z,13.67
2022-08-14T18:55:53.771Z,14.00
2022-08-14T18:58:30.452Z,12.50
2022-08-14T19:01:01.258Z,14.00
2022-08-14T19:03:58.691Z,14.00
2022-08-14T19:06:40.146Z,10.50
2022-08-14T19:09:08.192Z,14.00
2022-08-14T19:11:50.372Z,13.33
2022-08-14T19:14:46.822Z,15.67
2022-08-14T19:18:14.763Z,14.50
2022-08-14T19:20:46.341Z,14.75
2022-08-14T19:23:16.794Z,14.25
2022-08-14T19:25:51.799Z,13.50
2022-08-14T19:28:31.546Z,14.25
2022-08-14T19:31:54.983Z,14.25
2022-08-14T19:34:47.995Z,13.25
2022-08-14T19:37:16.285Z,11.00
2022-08-14T19:39:54.092Z,13.50
2022-08-14T19:42:28.038Z,7.50
2022-08-14T19:44:58.916Z,14.25
2022-08-14T19:47:38.617Z,16.00
2022-08-14T19:50:31.142Z,15.50
2022-08-14T19:53:05.172Z,14.75
2022-08-14T19:55:45.418Z,14.25
2022-08-14T19:58:13.675Z,15.50
2022-08-14T20:00:52.481Z,15.00
2022-08-14T20:03:24.234Z,14.75
2022-08-14T20:05:59.476Z,15.00
2022-08-14T20:10:58.536Z,14.75
2022-08-14T20:12:00.509Z,14.25
2022-08-14T20:14:23.617Z,15.00
2022-08-14T20:17:04.687Z,15.50
2022-08-14T20:19:37.564Z,16.75
2022-08-14T20:22:35.337Z,14.00
2022-08-14T20:24:54.556Z,19.50
2022-08-14T20:27:44.356Z,18.00
2022-08-14T20:30:35.966Z,17.50
2022-08-14T20:33:08.027Z,18.00
2022-08-14T20:35:43.319Z,17.00
2022-08-14T20:38:30.229Z,18.75
2022-08-14T20:40:59.926Z,18.00
2022-08-14T20:43:46.096Z,15.75
2022-08-14T20:46:16.181Z,17.75
2022-08-14T20:48:57.396Z,17.00
2022-08-14T20:51:37.157Z,17.00
2022-08-14T20:54:06.005Z,19.25
2022-08-14T20:56:34.161Z,17.00
2022-08-14T20:59:17.313Z,16.50
2022-08-14T21:01:47.615Z,16.75
2022-08-14T21:04:23.684Z,18.75
2022-08-14T21:07:25.377Z,16.00
2022-08-14T21:10:05.078Z,17.50
2022-08-14T21:12:35.131Z,16.50
2022-08-14T21:15:04.918Z,16.25
2022-08-14T21:17:38.688Z,16.00
2022-08-14T21:20:26.439Z,18.75
2022-08-14T21:23:00.688Z,17.25
2022-08-14T21:25:31.770Z,16.25
2022-08-14T21:28:00.639Z,18.50
2022-08-14T21:30:46.723Z,15.00
2022-08-14T21:33:20.455Z,17.25
2022-08-14T21:35:49.465Z,15.75
2022-08-14T21:38:22.547Z,15.50
2022-08-14T21:41:01.507Z,14.50
2022-08-14T21:43:32.148Z,16.75
2022-08-14T21:46:00.274Z,18.25
2022-08-14T21:48:32.182Z,17.50
2022-08-14T21:51:53.577Z,16.50
2022-08-14T21:53:58.690Z,17.00
2022-08-14T21:56:38.239Z,18.00
2022-08-14T21:59:08.198Z,16.67
2022-08-14T22:02:01.832Z,18.00
2022-08-14T22:04:32.042Z,17.00
2022-08-14T22:07:01.550Z,17.00
2022-08-14T22:09:32.408Z,18.00
2022-08-14T22:12:06.740Z,13.50
2022-08-14T22:14:43.492Z,17.25
2022-08-14T22:17:13.098Z,17.50
2022-08-14T22:19:54.542Z,17.75
2022-08-14T22:22:22.603Z,19.25
2022-08-14T22:24:54.052Z,16.75
2022-08-14T22:27:28.428Z,18.50
2022-08-14T22:29:58.609Z,17.75
2022-08-14T22:32:35.383Z,19.25
2022-08-14T22:35:15.599Z,17.50
2022-08-14T22:37:44.434Z,16.25
2022-08-14T22:40:51.873Z,17.75
2022-08-14T22:43:01.063Z,18.00
2022-08-14T22:45:36.249Z,15.50
2022-08-14T22:48:05.225Z,15.25
2022-08-14T22:50:49.045Z,19.00
2022-08-14T22:53:21.241Z,16.75
2022-08-14T22:55:52.051Z,19.75
2022-08-14T22:58:20.343Z,19.00
2022-08-14T23:01:01.246Z,18.75
2022-08-14T23:03:34.167Z,18.00
2022-08-14T23:06:03.139Z,17.25
2022-08-14T23:08:58.020Z,16.25
2022-08-14T23:11:28.866Z,18.00
2022-08-14T23:13:56.322Z,20.00
2022-08-14T23:16:28.457Z,19.25
2022-08-14T23:18:55.900Z,19.00
2022-08-14T23:21:25.115Z,19.50
2022-08-14T23:23:55.264Z,18.00
2022-08-14T23:26:48.640Z,20.25
2022-08-14T23:29:11.259Z,21.25
2022-08-14T23:31:39.396Z,19.75
2022-08-14T23:34:07.803Z,19.00
2022-08-14T23:36:53.443Z,19.50
2022-08-14T23:39:24.599Z,16.75
2022-08-14T23:41:58.061Z,21.50
2022-08-14T23:44:31.911Z,20.00
2022-08-14T23:47:03.274Z,21.25
2022-08-14T23:50:01.375Z,21.00
2022-08-14T23:52:50.904Z,20.50
2022-08-14T23:55:11.146Z,19.50
2022-08-14T23:57:43.803Z,20.25
